createdAt,value
2023-01-12T00:02:19.875Z,69.34
2023-01-12T00:04:47.852Z,69.42
2023-01-12T00:07:18.037Z,69.29
2023-01-12T00:09:45.891Z,69.41
2023-01-12T00:12:14.568Z,68.83
2023-01-12T00:14:42.441Z,69.14
2023-01-12T00:17:11.907Z,69.13
2023-01-12T00:19:41.508Z,69.38
2023-01-12T00:22:12.339Z,69.08
2023-01-12T00:24:42.534Z,69.09
2023-01-12T00:27:12.142Z,68.89
2023-01-12T00:29:40.430Z,68.88
2023-01-12T00:32:13.749Z,68.96
2023-01-12T00:34:46.167Z,68.60
2023-01-12T00:37:15.985Z,68.32
2023-01-12T00:39:53.107Z,67.65
2023-01-12T00:42:38.617Z,68.17
2023-01-12T00:45:24.998Z,68.19
2023-01-12T00:47:53.967Z,67.64
2023-01-12T00:50:23.438Z,67.93
2023-01-12T00:52:51.337Z,67.28
2023-01-12T00:55:19.839Z,67.75
2023-01-12T00:57:48.078Z,67.83
2023-01-12T01:00:17.204Z,67.32
2023-01-12T01:02:45.603Z,67.46
2023-01-12T01:05:13.493Z,67.22
2023-01-12T01:07:43.902Z,67.24
2023-01-12T01:10:15.709Z,66.80
2023-01-12T01:12:43.806Z,66.53
2023-01-12T01:15:14.576Z,66.63
2023-01-12T01:17:43.110Z,66.52
2023-01-12T01:20:12.577Z,66.56
2023-01-12T01:22:40.387Z,67.02
2023-01-12T01:25:11.262Z,67.03
2023-01-12T01:27:39.226Z,67.22
2023-01-12T01:30:08.401Z,66.94
2023-01-12T01:32:36.765Z,67.63
2023-01-12T01:35:04.970Z,67.66
2023-01-12T01:37:32.835Z,67.58
2023-01-12T01:40:01.311Z,67.75
2023-01-12T01:42:30.558Z,67.73
2023-01-12T01:45:00.417Z,67.06
2023-01-12T01:47:34.140Z,67.37
2023-01-12T01:50:05.006Z,67.63
2023-01-12T01:52:38.036Z,67.21
2023-01-12T01:55:09.999Z,67.45
2023-01-12T01:57:45.943Z,67.43
2023-01-12T02:00:14.824Z,67.57
2023-01-12T02:02:45.116Z,67.33
2023-01-12T02:05:19.431Z,67.69
2023-01-12T02:07:47.334Z,67.80
2023-01-12T02:10:15.467Z,67.96
2023-01-12T02:13:02.597Z,67.74
2023-01-12T02:15:54.540Z,67.89
2023-01-12T02:18:29.506Z,67.96
2023-01-12T02:21:13.207Z,67.54
2023-01-12T02:24:27.073Z,67.50
2023-01-12T02:27:32.404Z,67.53
2023-01-12T02:30:37.919Z,67.81
2023-01-12T02:33:24.565Z,67.98
2023-01-12T02:36:02.347Z,68.38
2023-01-12T02:38:37.879Z,68.47
2023-01-12T02:41:17.251Z,68.19
2023-01-12T02:43:44.877Z,68.46
2023-01-12T02:46:22.062Z,68.78
2023-01-12T02:48:57.168Z,69.26
2023-01-12T02:51:32.778Z,69.62
2023-01-12T02:54:05.709Z,69.16
2023-01-12T02:56:38.613Z,69.23
2023-01-12T02:59:10.656Z,69.65
2023-01-12T03:01:39.945Z,69.47
2023-01-12T03:04:14.018Z,69.66
2023-01-12T03:06:48.850Z,69.42
2023-01-12T03:09:19.692Z,69.54
2023-01-12T03:11:50.548Z,69.88
2023-01-12T03:14:18.952Z,69.62
2023-01-12T03:16:46.925Z,69.52
2023-01-12T03:19:21.788Z,69.78
2023-01-12T03:21:53.228Z,69.56
2023-01-12T03:24:27.214Z,69.54
2023-01-12T03:27:00.292Z,69.62
2023-01-12T03:29:34.690Z,69.11
2023-01-12T03:32:03.063Z,69.56
2023-01-12T03:34:33.387Z,69.43
2023-01-12T03:37:08.306Z,69.65
2023-01-12T03:39:43.532Z,70.02
2023-01-12T03:42:16.295Z,70.33
2023-01-12T03:44:54.689Z,69.97
2023-01-12T03:47:28.908Z,70.13
2023-01-12T03:50:04.220Z,70.08
2023-01-12T03:52:33.475Z,69.55
2023-01-12T03:55:03.338Z,69.49
2023-01-12T03:57:31.601Z,69.40
2023-01-12T04:00:02.494Z,69.97
2023-01-12T04:02:30.325Z,69.49
2023-01-12T04:04:59.562Z,70.01
2023-01-12T04:07:27.561Z,69.84
2023-01-12T04:09:57.143Z,69.95
2023-01-12T04:12:25.177Z,69.45
2023-01-12T04:14:53.774Z,69.33
2023-01-12T04:17:25.051Z,69.37
2023-01-12T04:19:53.715Z,69.81
2023-01-12T04:22:40.211Z,70.22
2023-01-12T04:25:09.947Z,70.24
2023-01-12T04:27:37.870Z,70.19
2023-01-12T04:30:06.376Z,69.90
2023-01-12T04:32:34.620Z,69.97
2023-01-12T04:35:02.572Z,70.21
2023-01-12T04:37:32.797Z,69.96
2023-01-12T04:40:00.779Z,69.83
2023-01-12T04:42:51.724Z,70.32
2023-01-12T04:45:20.044Z,69.91
2023-01-12T04:47:47.864Z,70.29
2023-01-12T04:50:15.952Z,70.07
2023-01-12T04:52:46.142Z,69.62
2023-01-12T04:55:13.970Z,70.20
2023-01-12T04:57:41.890Z,70.10
2023-01-12T05:00:11.323Z,69.98
2023-01-12T05:02:39.232Z,70.10
2023-01-12T05:05:08.830Z,70.94
2023-01-12T05:07:37.157Z,70.51
2023-01-12T05:10:27.457Z,70.58
2023-01-12T05:12:55.688Z,70.34
2023-01-12T05:15:23.811Z,70.54
2023-01-12T05:17:52.160Z,70.37
2023-01-12T05:20:20.663Z,70.49
2023-01-12T05:22:50.623Z,70.96
2023-01-12T05:25:20.398Z,70.92
2023-01-12T05:27:48.258Z,71.42
2023-01-12T05:30:16.955Z,70.92
2023-01-12T05:32:45.534Z,71.48
2023-01-12T05:35:13.412Z,71.45
2023-01-12T05:37:41.195Z,71.31
2023-01-12T05:40:10.853Z,72.07
2023-01-12T05:42:57.916Z,71.46
2023-01-12T05:45:26.379Z,72.05
2023-01-12T05:47:58.177Z,71.86
2023-01-12T05:50:26.637Z,71.56
2023-01-12T05:52:54.480Z,71.34
2023-01-12T05:55:22.235Z,71.76
2023-01-12T05:57:52.009Z,72.11
2023-01-12T06:00:20.504Z,71.70
2023-01-12T06:02:48.409Z,71.82
2023-01-12T06:05:16.731Z,71.98
2023-01-12T06:07:44.598Z,71.96
2023-01-12T06:10:13.308Z,72.37
2023-01-12T06:12:59.291Z,72.72
2023-01-12T06:15:28.475Z,72.56
2023-01-12T06:17:57.834Z,72.25
2023-01-12T06:20:26.423Z,72.26
2023-01-12T06:22:54.216Z,72.25
2023-01-12T06:25:22.381Z,72.14
2023-01-12T06:27:50.909Z,72.56
2023-01-12T06:30:19.196Z,73.21
2023-01-12T06:32:48.460Z,72.94
2023-01-12T06:35:19.616Z,72.94
2023-01-12T06:37:47.747Z,72.52
2023-01-12T06:40:15.876Z,72.82
2023-01-12T06:42:44.279Z,72.75
2023-01-12T06:45:12.356Z,73.15
2023-01-12T06:47:46.773Z,72.99
2023-01-12T06:50:16.511Z,73.05
2023-01-12T06:52:44.348Z,72.86
2023-01-12T06:55:12.576Z,73.31
2023-01-12T06:57:40.678Z,73.63
2023-01-12T07:00:12.671Z,73.34
2023-01-12T07:02:40.863Z,73.31
2023-01-12T07:05:09.510Z,72.73
2023-01-12T07:07:40.368Z,73.64
2023-01-12T07:10:09.035Z,73.53
2023-01-12T07:12:36.902Z,73.99
2023-01-12T07:15:06.050Z,72.96
2023-01-12T07:17:33.946Z,73.22
2023-01-12T07:20:01.773Z,73.04
2023-01-12T07:22:30.576Z,73.96
2023-01-12T07:24:59.831Z,73.76
2023-01-12T07:27:27.551Z,73.28
2023-01-12T07:29:56.220Z,73.56
2023-01-12T07:32:27.278Z,73.53
2023-01-12T07:34:55.094Z,73.20
2023-01-12T07:37:23.139Z,73.48
2023-01-12T07:39:50.965Z,73.26
2023-01-12T07:42:26.268Z,73.31
2023-01-12T07:44:54.191Z,73.18
2023-01-12T07:47:22.000Z,73.25
2023-01-12T07:49:50.350Z,73.29
2023-01-12T07:52:18.200Z,72.84
2023-01-12T07:54:46.040Z,73.12
2023-01-12T07:57:14.547Z,72.75
2023-01-12T07:59:43.750Z,72.85
2023-01-12T08:02:17.115Z,72.96
2023-01-12T08:04:45.222Z,73.31
2023-01-12T08:07:14.773Z,73.08
2023-01-12T08:09:43.199Z,72.73
2023-01-12T08:12:11.157Z,73.05
2023-01-12T08:14:41.644Z,73.19
2023-01-12T08:17:17.531Z,72.83
2023-01-12T08:19:50.530Z,73.16
2023-01-12T08:22:22.909Z,73.58
2023-01-12T08:24:54.897Z,73.58
2023-01-12T08:27:27.320Z,73.88
2023-01-12T08:29:58.675Z,73.36
2023-01-12T08:32:29.958Z,73.52
2023-01-12T08:35:01.749Z,73.96
2023-01-12T08:37:31.417Z,73.60
2023-01-12T08:39:59.527Z,74.04
2023-01-12T08:42:28.768Z,73.83
2023-01-12T08:44:57.990Z,74.10
2023-01-12T08:47:30.309Z,73.60
2023-01-12T08:50:01.024Z,73.98
2023-01-12T08:52:31.777Z,73.86
2023-01-12T08:55:00.169Z,73.75
2023-01-12T08:57:28.676Z,73.84
2023-01-12T08:59:57.563Z,73.41
2023-01-12T09:02:27.154Z,73.95
2023-01-12T09:04:57.171Z,73.39
2023-01-12T09:07:25.583Z,73.38
2023-01-12T09:09:53.464Z,73.68
2023-01-12T09:12:24.311Z,73.57
2023-01-12T09:14:53.699Z,73.71
2023-01-12T09:17:23.455Z,73.32
2023-01-12T09:19:51.488Z,73.41
2023-01-12T09:22:20.880Z,73.81
2023-01-12T09:24:49.237Z,73.83
2023-01-12T09:27:17.031Z,73.61
2023-01-12T09:29:44.912Z,73.67
2023-01-12T09:32:12.824Z,73.83
2023-01-12T09:34:40.919Z,73.75
2023-01-12T09:37:08.882Z,73.76
2023-01-12T09:39:38.714Z,73.89
2023-01-12T09:42:26.962Z,73.75
2023-01-12T09:45:12.638Z,73.78
2023-01-12T09:47:44.675Z,73.83
2023-01-12T09:50:15.973Z,74.04
2023-01-12T09:52:48.101Z,73.66
2023-01-12T09:55:22.080Z,74.16
2023-01-12T09:58:11.436Z,74.33
2023-01-12T10:00:40.116Z,73.77
2023-01-12T10:03:15.361Z,73.85
2023-01-12T10:05:49.064Z,74.28
2023-01-12T10:08:23.584Z,74.27
2023-01-12T10:11:06.378Z,74.48
2023-01-12T10:14:00.246Z,74.64
2023-01-12T10:16:36.736Z,74.10
2023-01-12T10:19:13.338Z,74.21
2023-01-12T10:21:42.721Z,74.57
2023-01-12T10:24:13.840Z,74.05
2023-01-12T10:26:44.878Z,73.88
2023-01-12T10:29:13.601Z,73.82
2023-01-12T10:31:41.757Z,73.86
2023-01-12T10:34:12.231Z,73.94
2023-01-12T10:36:44.385Z,73.76
2023-01-12T10:39:30.196Z,73.84
2023-01-12T10:42:37.111Z,73.93
2023-01-12T10:45:17.949Z,73.62
2023-01-12T10:47:47.169Z,73.58
2023-01-12T10:50:23.880Z,73.50
2023-01-12T10:52:56.877Z,73.35
2023-01-12T10:55:27.164Z,73.59
2023-01-12T10:57:56.690Z,74.32
2023-01-12T11:00:27.935Z,74.33
2023-01-12T11:02:56.079Z,73.69
2023-01-12T11:05:34.718Z,74.09
2023-01-12T11:08:02.857Z,73.80
2023-01-12T11:10:32.276Z,74.25
2023-01-12T11:13:04.897Z,74.02
2023-01-12T11:15:39.092Z,74.22
2023-01-12T11:18:28.091Z,74.43
2023-01-12T11:21:02.151Z,74.17
2023-01-12T11:23:38.210Z,74.29
2023-01-12T11:26:19.258Z,73.74
2023-01-12T11:28:52.754Z,73.69
2023-01-12T11:31:23.867Z,73.82
2023-01-12T11:33:57.097Z,73.89
2023-01-12T11:36:30.161Z,73.64
2023-01-12T11:39:04.600Z,73.70
2023-01-12T11:41:37.681Z,73.56
2023-01-12T11:44:15.869Z,74.33
2023-01-12T11:46:47.759Z,74.10
2023-01-12T11:49:24.759Z,73.56
2023-01-12T11:51:57.469Z,74.08
2023-01-12T11:54:27.730Z,74.07
2023-01-12T11:57:35.599Z,73.80
2023-01-12T12:00:45.429Z,74.46
2023-01-12T12:03:44.190Z,74.17
2023-01-12T12:06:28.983Z,73.83
2023-01-12T12:09:08.998Z,73.54
2023-01-12T12:11:48.566Z,73.81
2023-01-12T12:14:28.965Z,74.33
2023-01-12T12:17:04.070Z,73.83
2023-01-12T12:19:43.104Z,73.88
2023-01-12T12:22:25.796Z,73.71
2023-01-12T12:25:04.938Z,74.29
2023-01-12T12:27:54.998Z,73.80
2023-01-12T12:30:39.871Z,74.07
2023-01-12T12:33:20.850Z,74.06
2023-01-12T12:36:03.675Z,73.83
2023-01-12T12:38:44.725Z,74.01
2023-01-12T12:41:43.813Z,73.80
2023-01-12T12:44:47.083Z,73.90
2023-01-12T12:47:44.361Z,73.97
2023-01-12T12:50:20.488Z,73.47
2023-01-12T12:53:01.121Z,73.66
2023-01-12T12:55:29.528Z,73.99
2023-01-12T12:58:02.244Z,73.94
2023-01-12T13:00:33.602Z,73.80
2023-01-12T13:03:01.370Z,74.08
2023-01-12T13:05:43.839Z,73.77
2023-01-12T13:08:22.659Z,74.03
2023-01-12T13:10:56.830Z,74.06
2023-01-12T13:13:32.745Z,73.93
2023-01-12T13:16:46.672Z,73.88
2023-01-12T13:19:33.042Z,73.93
2023-01-12T13:22:20.269Z,74.19
2023-01-12T13:24:49.472Z,73.82
2023-01-12T13:27:50.241Z,73.64
2023-01-12T13:30:40.491Z,73.60
2023-01-12T13:33:33.025Z,73.99
2023-01-12T13:36:10.832Z,73.54
2023-01-12T13:39:02.131Z,73.11
2023-01-12T13:41:52.041Z,73.72
2023-01-12T13:44:29.078Z,73.64
2023-01-12T13:47:05.292Z,73.27
2023-01-12T13:49:34.947Z,73.37
2023-01-12T13:52:05.225Z,73.13
2023-01-12T13:54:34.608Z,73.66
2023-01-12T13:57:10.661Z,73.34
2023-01-12T13:59:38.741Z,73.69
2023-01-12T14:02:18.983Z,73.15
2023-01-12T14:05:04.177Z,73.24
2023-01-12T14:07:44.538Z,72.88
2023-01-12T14:10:26.001Z,73.16
2023-01-12T14:13:15.975Z,72.55
2023-01-12T14:16:02.528Z,72.46
2023-01-12T14:18:42.011Z,73.00
2023-01-12T14:21:23.232Z,72.53
2023-01-12T14:23:51.159Z,72.20
2023-01-12T14:26:23.921Z,72.39
2023-01-12T14:28:54.133Z,71.81
2023-01-12T14:31:28.338Z,72.11
2023-01-12T14:33:58.332Z,71.30
2023-01-12T14:36:30.445Z,71.38
2023-01-12T14:39:00.739Z,71.40
2023-01-12T14:41:48.282Z,71.59
2023-01-12T14:44:38.392Z,71.66
2023-01-12T14:47:06.757Z,71.44
2023-01-12T14:49:35.920Z,71.36
2023-01-12T14:52:22.832Z,71.62
2023-01-12T14:54:52.114Z,70.81
2023-01-12T14:57:24.487Z,70.72
2023-01-12T14:59:54.353Z,70.55
2023-01-12T15:02:34.581Z,70.28
2023-01-12T15:05:04.529Z,70.61
2023-01-12T15:07:36.850Z,70.26
2023-01-12T15:10:32.235Z,70.52
2023-01-12T15:13:13.169Z,70.00
2023-01-12T15:15:59.460Z,69.89
2023-01-12T15:18:45.291Z,69.52
2023-01-12T15:21:30.280Z,69.91
2023-01-12T15:24:18.480Z,69.48
2023-01-12T15:26:51.101Z,69.43
2023-01-12T15:29:24.269Z,69.38
2023-01-12T15:31:53.574Z,68.47
2023-01-12T15:34:21.498Z,69.09
2023-01-12T15:36:49.816Z,68.80
2023-01-12T15:39:17.657Z,69.10
2023-01-12T15:42:03.901Z,68.71
2023-01-12T15:44:31.640Z,68.91
2023-01-12T15:47:01.214Z,69.46
2023-01-12T15:49:29.749Z,69.40
2023-01-12T15:51:57.508Z,69.90
2023-01-12T15:54:25.384Z,69.62
2023-01-12T15:56:54.353Z,69.92
2023-01-12T15:59:22.179Z,69.98
2023-01-12T16:01:50.824Z,70.01
2023-01-12T16:07:11.501Z,70.56
2023-01-12T16:09:41.576Z,70.60
2023-01-12T16:12:10.160Z,71.00
2023-01-12T16:14:38.334Z,71.48
2023-01-12T16:17:06.655Z,71.31
2023-01-12T16:19:41.265Z,71.43
2023-01-12T16:22:18.361Z,71.29
2023-01-12T16:24:46.136Z,71.33
2023-01-12T16:27:13.965Z,71.30
2023-01-12T16:29:42.530Z,71.24
2023-01-12T16:32:10.859Z,71.24
2023-01-12T16:34:40.819Z,70.93
2023-01-12T16:37:14.524Z,71.37
2023-01-12T16:39:43.014Z,71.02
2023-01-12T16:42:11.349Z,70.67
2023-01-12T16:44:41.080Z,71.24
2023-01-12T16:47:12.023Z,70.73
2023-01-12T16:49:41.896Z,70.49
2023-01-12T16:52:14.467Z,70.49
2023-01-12T16:54:44.347Z,71.04
2023-01-12T16:57:12.992Z,71.03
2023-01-12T16:59:40.919Z,70.48
2023-01-12T17:02:10.184Z,70.10
2023-01-12T17:04:39.618Z,70.47
2023-01-12T17:09:59.137Z,69.88
2023-01-12T17:15:16.121Z,70.65
2023-01-12T17:17:45.336Z,70.20
2023-01-12T17:20:13.761Z,70.16
2023-01-12T17:22:43.869Z,69.63
2023-01-12T17:25:12.746Z,70.47
2023-01-12T17:27:40.555Z,70.09
2023-01-12T17:30:09.799Z,70.53
2023-01-12T17:32:38.361Z,70.65
2023-01-12T17:35:09.368Z,70.20
2023-01-12T17:37:37.505Z,70.61
2023-01-12T17:40:08.419Z,70.25
2023-01-12T17:42:53.481Z,70.60
2023-01-12T17:45:21.860Z,70.04
2023-01-12T17:47:49.817Z,71.04
2023-01-12T17:50:18.060Z,70.93
2023-01-12T17:52:46.465Z,70.94
2023-01-12T17:55:15.933Z,71.10
2023-01-12T17:57:43.948Z,70.71
2023-01-12T18:00:16.174Z,71.21
2023-01-12T18:02:44.253Z,71.21
2023-01-12T18:05:12.312Z,71.16
2023-01-12T18:07:42.062Z,71.41
2023-01-12T18:10:11.542Z,71.44
2023-01-12T18:12:41.441Z,71.49
2023-01-12T18:15:10.746Z,71.52
2023-01-12T18:17:38.840Z,70.92
2023-01-12T18:20:08.059Z,71.39
2023-01-12T18:22:35.832Z,71.38
2023-01-12T18:25:03.547Z,72.06
2023-01-12T18:27:31.859Z,72.17
2023-01-12T18:30:01.245Z,71.76
2023-01-12T18:32:29.046Z,71.94
2023-01-12T18:34:58.402Z,72.03
2023-01-12T18:37:26.202Z,72.11
2023-01-12T18:39:54.081Z,71.86
2023-01-12T18:42:39.751Z,71.61
2023-01-12T18:45:10.057Z,71.34
2023-01-12T18:47:55.504Z,71.29
2023-01-12T18:50:42.370Z,71.74
2023-01-12T18:53:30.954Z,72.01
2023-01-12T18:56:02.413Z,72.12
2023-01-12T18:58:33.178Z,72.15
2023-01-12T19:01:04.971Z,72.43
2023-01-12T19:03:34.418Z,71.65
2023-01-12T19:06:19.755Z,72.15
2023-01-12T19:09:05.019Z,72.31
2023-01-12T19:11:33.036Z,71.91
2023-01-12T19:14:18.615Z,72.51
2023-01-12T19:17:05.204Z,71.96
2023-01-12T19:19:35.049Z,72.13
2023-01-12T19:22:21.111Z,72.26
2023-01-12T19:25:11.709Z,71.83
2023-01-12T19:27:57.235Z,72.34
2023-01-12T19:30:25.445Z,72.44
2023-01-12T19:32:55.467Z,72.10
2023-01-12T19:35:23.330Z,72.13
2023-01-12T19:37:51.851Z,72.47
2023-01-12T19:40:25.709Z,72.67
2023-01-12T19:43:12.726Z,73.04
2023-01-12T19:45:41.757Z,72.81
2023-01-12T19:48:12.891Z,72.90
2023-01-12T19:50:43.244Z,72.82
2023-01-12T19:53:13.954Z,72.32
2023-01-12T19:55:42.837Z,72.12
2023-01-12T19:58:11.258Z,72.63
2023-01-12T20:00:43.682Z,72.87
2023-01-12T20:03:14.873Z,72.66
2023-01-12T20:05:44.085Z,72.80
2023-01-12T20:08:12.552Z,73.19
2023-01-12T20:10:40.426Z,72.91
2023-01-12T20:13:09.185Z,72.74
2023-01-12T20:15:39.793Z,72.62
2023-01-12T20:18:08.886Z,72.57
2023-01-12T20:20:40.547Z,73.01
2023-01-12T20:23:08.414Z,72.83
2023-01-12T20:25:36.284Z,73.17
2023-01-12T20:28:04.259Z,72.63
2023-01-12T20:30:37.933Z,72.99
2023-01-12T20:33:06.394Z,73.13
2023-01-12T20:35:34.986Z,73.12
2023-01-12T20:38:07.182Z,73.20
2023-01-12T20:40:35.343Z,72.88
2023-01-12T20:43:03.251Z,72.88
2023-01-12T20:45:31.243Z,72.52
2023-01-12T20:47:59.158Z,72.83
2023-01-12T20:50:27.137Z,72.79
2023-01-12T20:52:55.241Z,72.58
2023-01-12T20:55:24.561Z,72.88
2023-01-12T20:57:53.716Z,72.20
2023-01-12T21:00:22.090Z,72.25
2023-01-12T21:02:50.077Z,72.40
2023-01-12T21:05:18.075Z,72.35
2023-01-12T21:07:47.495Z,72.44
2023-01-12T21:10:16.918Z,72.40
2023-01-12T21:12:46.835Z,72.45
2023-01-12T21:15:14.733Z,71.98
2023-01-12T21:17:42.804Z,72.03
2023-01-12T21:20:12.361Z,72.05
2023-01-12T21:22:40.251Z,72.41
2023-01-12T21:25:09.589Z,72.14
2023-01-12T21:27:39.126Z,72.54
2023-01-12T21:30:12.343Z,72.49
2023-01-12T21:32:40.870Z,72.19
2023-01-12T21:35:09.405Z,72.28
2023-01-12T21:37:37.346Z,72.15
2023-01-12T21:40:06.113Z,72.21
2023-01-12T21:42:51.270Z,72.22
2023-01-12T21:45:21.192Z,72.29
2023-01-12T21:47:49.013Z,72.68
2023-01-12T21:50:17.653Z,72.84
2023-01-12T21:52:45.717Z,72.97
2023-01-12T21:55:13.833Z,72.69
2023-01-12T21:57:41.745Z,73.04
2023-01-12T22:00:12.013Z,72.84
2023-01-12T22:02:41.627Z,72.54
2023-01-12T22:05:10.637Z,72.14
2023-01-12T22:07:38.961Z,71.47
2023-01-12T22:10:19.997Z,71.00
2023-01-12T22:12:48.631Z,70.57
2023-01-12T22:15:16.958Z,69.91
2023-01-12T22:17:46.225Z,69.81
2023-01-12T22:20:16.440Z,69.34
2023-01-12T22:22:45.172Z,69.13
2023-01-12T22:25:15.676Z,68.54
2023-01-12T22:27:44.319Z,68.58
2023-01-12T22:30:14.848Z,68.32
2023-01-12T22:32:43.011Z,68.36
2023-01-12T22:35:14.443Z,68.01
2023-01-12T22:37:42.783Z,67.25
2023-01-12T22:40:13.322Z,67.83
2023-01-12T22:43:01.326Z,67.25
2023-01-12T22:45:29.403Z,66.82
2023-01-12T22:47:57.739Z,66.87
2023-01-12T22:50:27.545Z,66.56
2023-01-12T22:52:56.451Z,66.01
2023-01-12T22:55:26.136Z,65.78
2023-01-12T22:57:54.600Z,66.00
2023-01-12T23:00:22.541Z,65.80
2023-01-12T23:03:03.254Z,65.75
2023-01-12T23:05:36.248Z,65.41
2023-01-12T23:08:06.049Z,64.99
2023-01-12T23:10:34.235Z,64.66
2023-01-12T23:13:19.691Z,64.62
2023-01-12T23:15:50.316Z,64.29
2023-01-12T23:18:21.493Z,64.58
2023-01-12T23:20:50.895Z,64.74
2023-01-12T23:23:18.772Z,64.79
2023-01-12T23:25:48.652Z,63.33
2023-01-12T23:28:17.035Z,63.79
2023-01-12T23:30:45.254Z,63.82
2023-01-12T23:33:13.886Z,63.21
2023-01-12T23:35:43.279Z,63.16
2023-01-12T23:38:16.504Z,63.28
2023-01-12T23:40:44.557Z,63.38
2023-01-12T23:43:12.363Z,62.88
2023-01-12T23:45:40.777Z,63.48
2023-01-12T23:48:08.872Z,62.80
2023-01-12T23:50:36.926Z,63.02
2023-01-12T23:53:05.136Z,63.19
2023-01-12T23:55:34.422Z,62.96
2023-01-12T23:58:02.275Z,62.44
